Time;durP1;ratioP1;P1;durP2;ratioP2;P2;SDS_P1;SDS_P2;PMS_P1;PMS_P2;Temp;Humidity;BMP_temperature;BMP_pressure;BME280_temperature;BME280_humidity;BME280_pressure;Samples;Min_cycle;Max_cycle;Signal;HPM_P1;HPM_P2
2023/12/08 00:00:45;;;;;;;19.50;10.35;;;2.10;99.90;;;;;;6211736;23;20043;-66
2023/12/08 00:03:12;;;;;;;20.77;10.20;;;2.10;99.90;;;;;;6211535;23;20345;-67
2023/12/08 00:05:38;;;;;;;21.35;9.77;;;2.00;99.90;;;;;;6211704;23;20021;-67
2023/12/08 00:08:04;;;;;;;20.17;11.40;;;2.00;99.90;;;;;;6211567;23;20091;-67
2023/12/08 00:10:29;;;;;;;20.77;10.93;;;2.10;99.90;;;;;;6209664;23;20024;-66
2023/12/08 00:12:55;;;;;;;24.17;11.35;;;2.00;99.90;;;;;;6210299;23;20035;-67
2023/12/08 00:15:21;;;;;;;21.15;10.68;;;2.00;99.90;;;;;;6210968;23;20110;-67
2023/12/08 00:17:46;;;;;;;22.27;10.93;;;2.00;99.90;;;;;;6211262;23;20020;-67
2023/12/08 00:20:12;;;;;;;21.48;10.88;;;2.00;99.90;;;;;;6209287;23;20781;-67
2023/12/08 00:22:38;;;;;;;19.33;11.20;;;2.00;99.90;;;;;;6209657;23;20074;-67
2023/12/08 00:25:04;;;;;;;21.30;11.27;;;2.00;99.90;;;;;;6210913;23;20020;-67
2023/12/08 00:27:30;;;;;;;21.35;12.60;;;2.10;99.90;;;;;;6184346;23;20020;-67
2023/12/08 00:29:55;;;;;;;20.02;11.57;;;2.00;99.90;;;;;;6211549;23;20024;-67
2023/12/08 00:32:21;;;;;;;20.80;11.30;;;2.00;99.90;;;;;;6209530;23;20020;-67
2023/12/08 00:34:47;;;;;;;24.08;11.77;;;2.00;99.90;;;;;;6211168;23;20883;-67
2023/12/08 00:37:13;;;;;;;20.00;10.50;;;2.10;99.90;;;;;;6211628;23;20345;-67
2023/12/08 00:39:39;;;;;;;20.42;11.65;;;2.00;99.90;;;;;;6209663;23;20017;-66
2023/12/08 00:42:05;;;;;;;19.25;11.25;;;2.00;99.90;;;;;;6209652;23;20477;-67
2023/12/08 00:44:30;;;;;;;21.08;11.05;;;2.10;99.90;;;;;;6209974;23;20055;-67
2023/12/08 00:46:56;;;;;;;23.35;12.32;;;2.10;99.90;;;;;;6211566;23;20083;-67
2023/12/08 00:49:22;;;;;;;22.20;11.52;;;2.10;99.90;;;;;;6209444;23;20079;-67
2023/12/08 00:51:47;;;;;;;23.13;11.35;;;2.10;99.90;;;;;;6209366;23;20059;-67
2023/12/08 00:54:13;;;;;;;20.08;10.65;;;2.10;99.90;;;;;;6209093;23;20021;-67
2023/12/08 00:56:39;;;;;;;20.70;11.82;;;2.10;99.90;;;;;;6208667;23;20107;-67
2023/12/08 00:59:05;;;;;;;21.25;11.85;;;2.20;99.90;;;;;;6208981;23;20047;-67
2023/12/08 01:01:30;;;;;;;20.42;11.63;;;2.20;99.90;;;;;;6210767;23;20025;-67
2023/12/08 01:03:56;;;;;;;23.52;11.23;;;2.10;99.90;;;;;;6210658;23;20336;-67
2023/12/08 01:06:22;;;;;;;21.13;11.70;;;2.10;99.90;;;;;;6211232;23;20027;-67
2023/12/08 01:08:48;;;;;;;20.58;11.43;;;2.10;99.90;;;;;;6211246;23;20026;-67
2023/12/08 01:11:14;;;;;;;23.15;11.82;;;2.10;99.90;;;;;;6210563;23;20696;-67
2023/12/08 01:13:40;;;;;;;20.80;11.68;;;2.10;99.90;;;;;;6211058;23;20024;-67
2023/12/08 01:16:06;;;;;;;21.52;11.05;;;2.10;99.90;;;;;;6210595;23;20028;-67
2023/12/08 01:18:33;;;;;;;20.48;11.63;;;2.10;99.90;;;;;;6210960;23;20013;-67
2023/12/08 01:20:58;;;;;;;22.42;11.98;;;2.20;99.90;;;;;;6210820;23;20017;-67
2023/12/08 01:23:24;;;;;;;21.17;11.48;;;2.20;99.90;;;;;;6208897;23;20020;-67
2023/12/08 01:25:50;;;;;;;22.42;12.30;;;2.10;99.90;;;;;;6210502;23;20653;-66
2023/12/08 01:28:15;;;;;;;21.70;11.23;;;2.10;99.90;;;;;;6210814;23;20028;-67
2023/12/08 01:30:41;;;;;;;22.20;12.27;;;2.10;99.90;;;;;;6211048;23;20024;-67
2023/12/08 01:33:07;;;;;;;22.45;12.10;;;2.10;99.90;;;;;;6211245;23;20714;-67
2023/12/08 01:35:32;;;;;;;23.75;12.35;;;2.00;99.90;;;;;;6209005;23;20025;-67
2023/12/08 01:37:58;;;;;;;21.92;11.68;;;2.10;99.90;;;;;;6212591;23;20024;-67
2023/12/08 01:40:24;;;;;;;29.08;11.93;;;2.00;99.90;;;;;;6212630;23;20310;-66
2023/12/08 01:42:49;;;;;;;21.38;11.82;;;2.00;99.90;;;;;;6210857;23;20025;-67
2023/12/08 01:45:15;;;;;;;20.67;11.48;;;2.00;99.90;;;;;;6212619;23;20028;-67
2023/12/08 01:47:43;;;;;;;21.08;12.18;;;2.00;99.90;;;;;;6212886;23;20019;-67
2023/12/08 01:50:11;;;;;;;25.48;11.80;;;2.00;99.90;;;;;;6212596;23;20443;-67
2023/12/08 01:52:37;;;;;;;24.63;13.80;;;2.00;99.90;;;;;;6210742;23;20095;-67
2023/12/08 01:55:03;;;;;;;22.60;12.98;;;2.00;99.90;;;;;;6210629;23;20448;-67
2023/12/08 01:57:29;;;;;;;23.73;12.23;;;2.00;99.90;;;;;;6212667;23;20023;-67
2023/12/08 01:59:57;;;;;;;22.35;11.98;;;2.00;99.90;;;;;;6212883;23;20017;-67
2023/12/08 02:02:23;;;;;;;19.92;11.63;;;2.00;99.90;;;;;;6212629;23;20024;-67
2023/12/08 02:04:53;;;;;;;29.35;12.80;;;2.00;99.90;;;;;;6212794;23;20070;-67
2023/12/08 02:07:20;;;;;;;21.73;12.50;;;2.00;99.90;;;;;;6210958;23;20106;-67
2023/12/08 02:09:47;;;;;;;23.42;12.48;;;2.00;99.90;;;;;;6212037;23;20017;-67
2023/12/08 02:12:13;;;;;;;23.85;12.13;;;2.00;99.90;;;;;;6212836;23;20031;-66
2023/12/08 02:14:39;;;;;;;23.35;12.65;;;2.00;99.90;;;;;;6212635;23;20021;-67
2023/12/08 02:17:13;;;;;;;20.50;12.13;;;2.00;99.90;;;;;;6210802;23;20058;-67
2023/12/08 02:19:40;;;;;;;21.73;11.50;;;1.90;99.90;;;;;;6213008;23;20071;-67
2023/12/08 02:22:06;;;;;;;23.88;11.85;;;2.00;99.90;;;;;;6212363;23;20025;-67
2023/12/08 02:24:32;;;;;;;22.13;12.07;;;2.00;99.90;;;;;;6212477;23;20605;-67
2023/12/08 02:26:58;;;;;;;27.63;13.38;;;2.00;99.90;;;;;;6210516;23;20091;-67
2023/12/08 02:29:24;;;;;;;20.95;12.23;;;2.00;99.90;;;;;;6212602;23;20083;-67
2023/12/08 02:32:05;;;;;;;22.77;12.35;;;2.00;99.90;;;;;;6212313;23;20449;-67
2023/12/08 02:34:32;;;;;;;20.55;11.20;;;2.10;99.90;;;;;;6212497;23;20024;-67
2023/12/08 02:37:01;;;;;;;24.58;12.93;;;2.10;99.90;;;;;;6210773;23;20361;-67
2023/12/08 02:39:28;;;;;;;22.00;12.02;;;2.10;99.90;;;;;;6212590;23;20016;-67
2023/12/08 02:41:54;;;;;;;23.27;12.02;;;2.10;99.90;;;;;;6212447;23;20027;-67
2023/12/08 02:44:19;;;;;;;21.38;11.52;;;2.10;99.90;;;;;;6210579;23;20028;-67
2023/12/08 02:46:46;;;;;;;21.83;11.65;;;2.10;99.90;;;;;;6212389;23;20028;-67
2023/12/08 02:49:12;;;;;;;20.95;11.95;;;2.20;99.90;;;;;;6211951;23;20655;-67
2023/12/08 02:51:37;;;;;;;24.17;11.82;;;2.10;99.90;;;;;;6211599;23;20020;-67
2023/12/08 02:54:03;;;;;;;24.70;11.13;;;2.10;99.90;;;;;;6211673;23;20016;-67
2023/12/08 02:56:29;;;;;;;21.63;11.60;;;2.10;99.90;;;;;;6210162;23;20086;-67
2023/12/08 02:58:54;;;;;;;22.63;12.43;;;2.10;99.90;;;;;;6211576;23;20035;-67
2023/12/08 03:01:20;;;;;;;21.65;11.88;;;2.10;99.90;;;;;;6211920;23;20020;-67
2023/12/08 03:03:46;;;;;;;21.77;11.55;;;2.10;99.90;;;;;;6210527;23;20017;-67
2023/12/08 03:06:12;;;;;;;19.08;10.60;;;2.10;99.90;;;;;;6210340;23;20027;-67
2023/12/08 03:08:38;;;;;;;22.48;12.57;;;2.10;99.90;;;;;;6212781;23;20021;-66
2023/12/08 03:11:04;;;;;;;21.05;11.93;;;2.10;99.90;;;;;;6212755;23;20020;-67
2023/12/08 03:13:30;;;;;;;20.70;11.07;;;2.20;99.90;;;;;;6210263;23;20017;-67
2023/12/08 03:15:55;;;;;;;20.63;11.73;;;2.20;99.90;;;;;;6212134;23;20100;-67
2023/12/08 03:18:21;;;;;;;22.10;11.50;;;2.20;99.90;;;;;;6210035;23;20099;-67
2023/12/08 03:20:47;;;;;;;22.45;11.35;;;2.20;99.90;;;;;;6211849;23;20013;-67
2023/12/08 03:23:13;;;;;;;18.73;10.30;;;2.20;99.90;;;;;;6209994;23;20448;-67
2023/12/08 03:25:38;;;;;;;24.58;12.02;;;2.10;99.90;;;;;;6211990;23;20062;-67
2023/12/08 03:28:04;;;;;;;21.55;11.40;;;2.10;99.90;;;;;;6211744;23;20120;-66
2023/12/08 03:30:29;;;;;;;26.33;12.07;;;2.00;99.90;;;;;;6211886;23;20017;-66
2023/12/08 03:32:55;;;;;;;22.30;11.57;;;2.00;99.90;;;;;;6184703;23;20092;-66
2023/12/08 03:35:21;;;;;;;19.85;11.07;;;1.90;99.90;;;;;;6211513;23;20119;-66
2023/12/08 03:37:46;;;;;;;20.10;11.02;;;1.90;99.90;;;;;;6209767;23;20035;-68
2023/12/08 03:40:12;;;;;;;21.08;11.45;;;1.80;99.90;;;;;;6209655;23;20021;-66
2023/12/08 03:42:38;;;;;;;22.35;10.98;;;1.80;99.90;;;;;;6211756;23;20441;-66
2023/12/08 03:45:05;;;;;;;21.25;11.38;;;1.70;99.90;;;;;;6209853;23;20024;-66
2023/12/08 03:47:30;;;;;;;24.17;11.27;;;1.70;99.90;;;;;;6211701;23;20024;-66
2023/12/08 03:49:56;;;;;;;22.48;11.82;;;1.70;99.90;;;;;;6209614;23;20032;-66
2023/12/08 03:52:22;;;;;;;23.27;12.13;;;1.70;99.90;;;;;;6211780;23;20027;-67
2023/12/08 03:54:47;;;;;;;24.52;11.45;;;1.70;99.90;;;;;;6209730;23;20441;-66
2023/12/08 03:57:13;;;;;;;24.08;13.27;;;1.70;99.90;;;;;;6211462;23;20017;-66
2023/12/08 03:59:41;;;;;;;24.30;12.00;;;1.70;99.90;;;;;;6211246;23;20029;-69
2023/12/08 04:02:07;;;;;;;22.40;11.68;;;1.60;99.90;;;;;;6209626;23;20028;-66
2023/12/08 04:04:33;;;;;;;24.50;12.02;;;1.60;99.90;;;;;;6209207;23;20024;-66
2023/12/08 04:06:58;;;;;;;21.45;11.90;;;1.70;99.90;;;;;;6211440;23;20017;-68
2023/12/08 04:09:24;;;;;;;21.15;11.93;;;1.70;99.90;;;;;;6209496;23;20083;-66
2023/12/08 04:11:50;;;;;;;23.00;12.32;;;1.70;99.90;;;;;;6211703;23;20020;-66
2023/12/08 04:14:16;;;;;;;23.92;12.50;;;1.60;99.90;;;;;;6209360;23;20021;-66
2023/12/08 04:16:41;;;;;;;23.67;12.75;;;1.70;99.90;;;;;;6209316;23;20049;-66
2023/12/08 04:19:07;;;;;;;22.77;11.32;;;1.70;99.90;;;;;;6209281;23;20017;-66
2023/12/08 04:21:33;;;;;;;20.88;11.68;;;1.70;99.90;;;;;;6209801;23;20021;-66
2023/12/08 04:23:58;;;;;;;23.63;12.85;;;1.70;99.90;;;;;;6211692;23;20892;-67
2023/12/08 04:26:27;;;;;;;22.98;12.80;;;1.80;99.90;;;;;;6211355;23;20023;-67
2023/12/08 04:28:53;;;;;;;25.25;12.77;;;1.80;99.90;;;;;;6211331;23;20472;-67
2023/12/08 04:31:20;;;;;;;21.10;11.65;;;1.80;99.90;;;;;;6209335;23;20020;-66
2023/12/08 04:33:46;;;;;;;23.42;12.35;;;1.70;99.90;;;;;;6210734;23;20029;-67
2023/12/08 04:36:12;;;;;;;24.05;11.80;;;1.80;99.90;;;;;;6209197;23;20020;-66
2023/12/08 04:38:38;;;;;;;23.40;12.15;;;1.70;99.90;;;;;;6211404;23;20017;-67
2023/12/08 04:41:03;;;;;;;26.90;13.52;;;1.70;99.90;;;;;;6211073;23;20106;-67
2023/12/08 04:43:29;;;;;;;23.38;11.98;;;1.70;99.90;;;;;;6210935;23;20027;-67
2023/12/08 04:45:55;;;;;;;25.27;12.88;;;1.70;99.90;;;;;;6211055;23;20024;-67
2023/12/08 04:48:21;;;;;;;23.40;12.45;;;1.70;99.90;;;;;;6210883;23;20028;-67
2023/12/08 04:50:46;;;;;;;21.63;11.88;;;1.60;99.90;;;;;;6209370;23;20024;-67
2023/12/08 04:53:12;;;;;;;25.77;12.43;;;1.70;99.90;;;;;;6208968;23;20094;-67
2023/12/08 04:55:38;;;;;;;24.95;13.07;;;1.70;99.90;;;;;;6208967;23;20044;-66
2023/12/08 04:58:04;;;;;;;26.15;14.05;;;1.70;99.90;;;;;;6208734;23;20024;-67
2023/12/08 05:00:29;;;;;;;23.80;13.40;;;1.70;99.90;;;;;;6210876;23;20103;-67
2023/12/08 05:02:58;;;;;;;25.80;12.68;;;1.70;99.90;;;;;;6210960;23;20459;-67
2023/12/08 05:05:24;;;;;;;26.00;13.65;;;1.70;99.90;;;;;;6211160;23;20021;-67
2023/12/08 05:07:50;;;;;;;29.35;13.55;;;1.60;99.90;;;;;;6209166;23;20020;-67
2023/12/08 05:10:16;;;;;;;23.58;12.68;;;1.70;99.90;;;;;;6210814;23;20017;-67
2023/12/08 05:12:44;;;;;;;23.92;12.98;;;1.60;99.90;;;;;;6210867;23;20052;-67
2023/12/08 05:15:10;;;;;;;25.90;13.85;;;1.70;99.90;;;;;;6210442;23;20017;-67
2023/12/08 05:17:36;;;;;;;27.13;13.50;;;1.60;99.90;;;;;;6208783;23;20055;-67
2023/12/08 05:20:05;;;;;;;25.80;14.05;;;1.60;99.90;;;;;;6211016;23;20020;-67
2023/12/08 05:22:31;;;;;;;22.85;11.98;;;1.60;99.90;;;;;;6210977;23;20583;-67
2023/12/08 05:24:57;;;;;;;26.58;14.15;;;1.50;99.90;;;;;;6209226;23;20023;-67
2023/12/08 05:27:22;;;;;;;25.30;13.48;;;1.50;99.90;;;;;;6211188;23;20540;-67
2023/12/08 05:29:48;;;;;;;27.35;13.93;;;1.50;99.90;;;;;;6208819;23;20021;-67
2023/12/08 05:32:13;;;;;;;25.55;13.80;;;1.50;99.90;;;;;;6210636;23;20071;-67
2023/12/08 05:34:39;;;;;;;25.70;13.05;;;1.50;99.90;;;;;;6212027;23;20023;-67
2023/12/08 05:37:05;;;;;;;22.63;12.15;;;1.40;99.90;;;;;;6210003;23;20033;-67
2023/12/08 05:39:31;;;;;;;27.52;13.63;;;1.40;99.90;;;;;;6211633;23;20565;-67
2023/12/08 05:41:57;;;;;;;20.90;11.73;;;1.40;99.90;;;;;;6211061;23;20021;-67
2023/12/08 05:44:23;;;;;;;24.92;13.70;;;1.40;99.90;;;;;;6209073;23;20710;-67
2023/12/08 05:46:48;;;;;;;27.70;12.77;;;1.40;99.90;;;;;;6208873;23;20036;-67
2023/12/08 05:49:17;;;;;;;27.25;13.55;;;1.40;99.90;;;;;;6208777;23;20020;-67
2023/12/08 05:51:43;;;;;;;23.63;11.93;;;1.30;99.90;;;;;;6210579;23;20035;-67
2023/12/08 05:54:09;;;;;;;26.38;13.45;;;1.30;99.90;;;;;;6210496;23;20025;-67
2023/12/08 05:56:34;;;;;;;27.50;13.18;;;1.30;99.90;;;;;;6208632;23;20079;-67
2023/12/08 05:59:00;;;;;;;23.55;12.30;;;1.30;99.90;;;;;;6210511;23;20392;-67
2023/12/08 06:01:26;;;;;;;27.27;13.10;;;1.30;99.90;;;;;;6210129;23;20026;-67
2023/12/08 06:03:52;;;;;;;27.13;13.23;;;1.30;99.90;;;;;;6210218;23;20020;-67
2023/12/08 06:06:17;;;;;;;27.55;13.30;;;1.40;99.90;;;;;;6208526;23;20016;-67
2023/12/08 06:08:43;;;;;;;25.33;13.30;;;1.40;99.90;;;;;;6210340;23;20132;-67
2023/12/08 06:11:08;;;;;;;29.88;13.15;;;1.40;99.90;;;;;;6208551;23;20024;-67
2023/12/08 06:13:34;;;;;;;27.70;14.45;;;1.40;99.90;;;;;;6210391;23;20232;-67
2023/12/08 06:16:01;;;;;;;26.50;14.40;;;1.40;99.90;;;;;;6209997;23;20054;-67
2023/12/08 06:18:26;;;;;;;25.35;12.85;;;1.40;99.90;;;;;;6210896;23;20402;-67
2023/12/08 06:20:52;;;;;;;27.30;12.52;;;1.40;99.90;;;;;;6210769;23;20048;-67
2023/12/08 06:23:18;;;;;;;24.55;13.27;;;1.40;99.90;;;;;;6209911;23;20028;-67
2023/12/08 06:25:43;;;;;;;25.05;13.10;;;1.40;99.90;;;;;;6212778;23;20025;-67
2023/12/08 06:28:09;;;;;;;28.98;15.40;;;1.50;99.90;;;;;;6212285;23;20021;-67
2023/12/08 06:30:35;;;;;;;29.52;15.23;;;1.50;99.90;;;;;;6212180;23;20020;-67
2023/12/08 06:33:00;;;;;;;26.95;14.18;;;1.50;99.90;;;;;;6212150;23;20020;-67
2023/12/08 06:35:27;;;;;;;30.90;14.23;;;1.50;99.90;;;;;;6212006;23;20025;-66
2023/12/08 06:37:52;;;;;;;26.52;12.95;;;1.50;99.90;;;;;;6210378;23;20039;-67
2023/12/08 06:40:18;;;;;;;26.98;14.25;;;1.50;99.90;;;;;;6210553;23;20520;-67
2023/12/08 06:42:43;;;;;;;25.05;12.60;;;1.50;99.90;;;;;;6212097;23;20323;-67
2023/12/08 06:45:09;;;;;;;29.17;14.18;;;1.50;99.90;;;;;;6210457;23;20024;-67
2023/12/08 06:47:35;;;;;;;29.15;14.10;;;1.60;99.90;;;;;;6212711;23;20025;-67
2023/12/08 06:50:01;;;;;;;25.90;13.70;;;1.60;99.90;;;;;;6212005;23;20016;-67
2023/12/08 06:52:26;;;;;;;25.40;13.27;;;1.60;99.90;;;;;;6212219;23;20027;-67
2023/12/08 06:54:52;;;;;;;26.92;13.43;;;1.60;99.90;;;;;;6212005;23;20023;-67
2023/12/08 06:57:18;;;;;;;25.42;13.88;;;1.60;99.90;;;;;;6211865;23;20079;-67
2023/12/08 06:59:43;;;;;;;25.48;13.18;;;1.60;99.90;;;;;;6212348;23;20008;-67
2023/12/08 07:02:09;;;;;;;26.13;14.10;;;1.50;99.90;;;;;;6211744;23;20024;-67
2023/12/08 07:04:35;;;;;;;29.92;12.57;;;1.60;99.90;;;;;;6210372;23;20747;-67
2023/12/08 07:07:00;;;;;;;27.95;13.82;;;1.40;99.90;;;;;;6212237;23;20017;-67
2023/12/08 07:09:26;;;;;;;27.67;14.15;;;1.40;99.90;;;;;;6209979;23;20055;-67
2023/12/08 07:11:52;;;;;;;30.27;17.27;;;1.50;99.90;;;;;;6212114;23;20574;-67
2023/12/08 07:14:17;;;;;;;33.70;18.10;;;1.30;99.90;;;;;;6211661;23;20075;-67
2023/12/08 07:16:44;;;;;;;29.27;14.20;;;1.40;99.90;;;;;;6209427;23;20055;-67
2023/12/08 07:19:10;;;;;;;30.48;15.35;;;1.40;99.90;;;;;;6210001;23;20016;-67
2023/12/08 07:21:43;;;;;;;33.38;15.65;;;1.40;99.90;;;;;;6211450;23;20024;-67
2023/12/08 07:24:10;;;;;;;28.88;14.15;;;1.40;99.90;;;;;;6211493;23;20017;-67
2023/12/08 07:26:35;;;;;;;29.23;13.68;;;1.60;99.90;;;;;;6211893;23;20044;-67
2023/12/08 07:29:01;;;;;;;28.67;14.40;;;1.50;99.90;;;;;;6209699;23;20016;-67
2023/12/08 07:31:26;;;;;;;25.65;13.88;;;1.50;99.90;;;;;;6210399;23;20052;-67
2023/12/08 07:33:52;;;;;;;27.40;14.30;;;1.50;99.90;;;;;;6211808;23;20075;-67
2023/12/08 07:36:18;;;;;;;30.38;14.75;;;1.50;99.90;;;;;;6210053;23;20480;-67
2023/12/08 07:38:44;;;;;;;26.55;14.35;;;1.50;99.90;;;;;;6211860;23;20079;-67
2023/12/08 07:41:09;;;;;;;24.77;13.52;;;1.50;99.90;;;;;;6211463;23;20047;-67
2023/12/08 07:43:36;;;;;;;31.00;15.18;;;1.50;99.90;;;;;;6209516;23;20087;-68
2023/12/08 07:46:02;;;;;;;26.15;13.43;;;1.50;99.90;;;;;;6211505;23;20024;-68
2023/12/08 07:48:28;;;;;;;25.33;12.85;;;1.60;99.90;;;;;;6209843;23;20031;-68
2023/12/08 07:50:54;;;;;;;26.50;13.45;;;1.60;99.90;;;;;;6211629;23;20024;-67
2023/12/08 07:53:20;;;;;;;29.15;13.93;;;1.60;99.90;;;;;;6211770;23;20091;-68
2023/12/08 07:55:45;;;;;;;29.48;13.57;;;1.50;99.90;;;;;;6211112;23;20405;-67
2023/12/08 07:58:11;;;;;;;26.55;13.25;;;1.50;99.90;;;;;;6210632;23;20103;-68
2023/12/08 08:00:37;;;;;;;28.13;13.93;;;1.50;99.90;;;;;;6209473;23;20060;-68
2023/12/08 08:03:04;;;;;;;25.92;13.75;;;1.60;99.90;;;;;;6211602;23;20717;-68
2023/12/08 08:05:30;;;;;;;28.80;13.63;;;1.60;99.90;;;;;;6211997;23;20059;-67
2023/12/08 08:07:56;;;;;;;24.92;14.10;;;1.60;99.90;;;;;;6211497;23;20024;-68
2023/12/08 08:10:22;;;;;;;29.77;15.18;;;1.60;99.90;;;;;;6211357;23;20469;-66
2023/12/08 08:12:48;;;;;;;30.67;15.13;;;1.70;99.90;;;;;;6210604;23;20025;-68
2023/12/08 08:15:13;;;;;;;25.33;13.63;;;1.70;99.90;;;;;;6210846;23;20081;-67
2023/12/08 08:17:39;;;;;;;24.73;13.90;;;1.70;99.90;;;;;;6209326;23;20021;-68
2023/12/08 08:20:06;;;;;;;27.40;13.80;;;1.70;99.90;;;;;;6211228;23;20026;-67
2023/12/08 08:22:32;;;;;;;30.08;14.63;;;1.70;99.90;;;;;;6211606;23;20070;-67
2023/12/08 08:24:59;;;;;;;24.80;13.55;;;1.80;99.90;;;;;;6211413;23;20063;-67
2023/12/08 08:27:25;;;;;;;22.88;12.80;;;1.70;99.90;;;;;;6209384;23;20517;-67
2023/12/08 08:29:50;;;;;;;25.77;14.32;;;1.70;99.90;;;;;;6211213;23;20048;-68
2023/12/08 08:32:17;;;;;;;28.08;14.13;;;1.70;99.90;;;;;;6184203;23;20016;-66
2023/12/08 08:34:43;;;;;;;26.35;13.38;;;1.80;99.90;;;;;;6211009;23;20548;-68
2023/12/08 08:37:09;;;;;;;27.08;13.48;;;1.80;99.90;;;;;;6211310;23;20046;-67
2023/12/08 08:39:35;;;;;;;28.52;13.50;;;1.80;99.90;;;;;;6210962;23;20102;-67
2023/12/08 08:42:00;;;;;;;23.67;13.13;;;1.90;99.90;;;;;;6209263;23;20025;-68
2023/12/08 08:44:27;;;;;;;30.75;14.40;;;1.90;99.90;;;;;;6208917;23;20020;-68
2023/12/08 08:46:53;;;;;;;26.60;13.13;;;2.40;99.90;;;;;;6210579;23;20017;-69
2023/12/08 08:49:19;;;;;;;25.38;13.65;;;2.10;99.90;;;;;;6183880;23;20023;-68
2023/12/08 08:51:45;;;;;;;26.25;12.68;;;1.90;99.90;;;;;;6211241;23;20092;-69
2023/12/08 08:54:10;;;;;;;25.73;13.90;;;1.90;99.90;;;;;;6210643;23;20048;-68
2023/12/08 08:56:36;;;;;;;26.60;13.85;;;1.80;99.90;;;;;;6210460;23;20024;-69
2023/12/08 08:59:03;;;;;;;29.73;13.48;;;1.80;99.90;;;;;;6210640;23;20020;-69
2023/12/08 09:01:28;;;;;;;25.33;13.57;;;1.80;99.90;;;;;;6210610;23;20073;-68
2023/12/08 09:03:54;;;;;;;24.42;13.30;;;1.80;99.90;;;;;;6209184;23;20091;-69
2023/12/08 09:06:20;;;;;;;25.48;13.93;;;1.80;99.90;;;;;;6210676;23;20032;-68
2023/12/08 09:08:46;;;;;;;24.75;13.38;;;1.80;99.90;;;;;;6208539;23;20024;-69
2023/12/08 09:11:12;;;;;;;25.85;13.45;;;1.80;99.90;;;;;;6210716;23;20024;-69
2023/12/08 09:13:37;;;;;;;30.10;13.77;;;1.70;99.90;;;;;;6210711;23;20020;-68
2023/12/08 09:16:04;;;;;;;28.35;15.30;;;1.80;99.90;;;;;;6210680;23;20032;-69
2023/12/08 09:18:30;;;;;;;21.85;11.73;;;1.80;99.90;;;;;;6210897;23;20348;-69
2023/12/08 09:20:55;;;;;;;30.45;14.40;;;1.70;99.90;;;;;;6210818;23;20345;-69
2023/12/08 09:23:22;;;;;;;27.08;14.02;;;1.80;99.90;;;;;;6210621;23;20082;-69
2023/12/08 09:25:48;;;;;;;26.92;13.88;;;1.70;99.90;;;;;;6210813;23;20016;-69
2023/12/08 09:28:16;;;;;;;27.75;13.02;;;1.80;99.90;;;;;;6210057;23;20024;-69
2023/12/08 09:30:42;;;;;;;24.55;13.40;;;1.80;99.90;;;;;;6208478;23;20016;-69
2023/12/08 09:33:09;;;;;;;27.02;13.02;;;1.80;99.90;;;;;;6210699;23;20039;-69
2023/12/08 09:35:35;;;;;;;29.00;14.35;;;1.80;99.90;;;;;;6208676;23;20036;-69
2023/12/08 09:38:01;;;;;;;28.27;13.98;;;1.80;99.90;;;;;;6209332;23;20048;-69
2023/12/08 09:40:28;;;;;;;26.38;13.82;;;1.80;99.90;;;;;;6208937;23;20404;-69
2023/12/08 09:43:05;;;;;;;32.63;14.35;;;1.80;99.90;;;;;;6210598;23;20013;-69
2023/12/08 09:45:31;;;;;;;26.38;13.27;;;1.90;99.90;;;;;;6208870;23;20437;-69
2023/12/08 09:47:58;;;;;;;26.83;13.30;;;1.90;99.90;;;;;;6210933;23;20013;-69
2023/12/08 09:50:25;;;;;;;34.72;13.93;;;1.90;99.90;;;;;;6210676;23;20024;-70
2023/12/08 09:52:53;;;;;;;27.20;14.48;;;1.90;99.90;;;;;;6208345;23;20075;-69
2023/12/08 09:55:20;;;;;;;25.02;14.07;;;1.90;99.90;;;;;;6210314;23;20024;-69
2023/12/08 09:57:48;;;;;;;30.33;13.48;;;1.90;99.90;;;;;;6209148;23;20515;-69
2023/12/08 10:00:15;;;;;;;25.90;15.13;;;2.00;99.90;;;;;;6212801;23;20040;-69
2023/12/08 10:02:41;;;;;;;26.67;13.55;;;1.90;99.90;;;;;;6212708;23;20364;-69
2023/12/08 10:05:08;;;;;;;28.92;14.40;;;2.00;99.90;;;;;;6212562;23;20479;-70
2023/12/08 10:07:35;;;;;;;29.08;15.30;;;2.00;99.90;;;;;;6212558;23;20031;-69
2023/12/08 10:10:01;;;;;;;31.00;14.27;;;2.00;99.90;;;;;;6212539;23;20098;-69
2023/12/08 10:12:27;;;;;;;26.90;14.43;;;2.00;99.90;;;;;;6213038;23;20016;-69
2023/12/08 10:15:01;;;;;;;26.58;13.95;;;2.10;99.90;;;;;;6212619;23;20341;-69
2023/12/08 10:17:27;;;;;;;29.70;15.63;;;2.00;99.90;;;;;;6212328;23;20024;-70
2023/12/08 10:20:12;;;;;;;33.05;15.43;;;2.00;99.90;;;;;;6212674;23;20012;-69
2023/12/08 10:22:54;;;;;;;29.23;14.52;;;2.00;99.90;;;;;;6210294;23;20354;-69
2023/12/08 10:25:24;;;;;;;29.13;15.73;;;2.00;99.90;;;;;;6210721;23;20016;-69
2023/12/08 10:27:55;;;;;;;31.13;15.02;;;2.00;99.90;;;;;;6212467;23;20036;-70
2023/12/08 10:30:26;;;;;;;28.20;14.43;;;2.00;99.90;;;;;;6212673;23;20059;-69
2023/12/08 10:32:52;;;;;;;23.65;13.82;;;2.10;99.90;;;;;;6213021;23;20013;-69
2023/12/08 10:35:18;;;;;;;27.60;13.98;;;2.00;99.90;;;;;;6212519;23;20098;-69
2023/12/08 10:37:44;;;;;;;29.67;14.73;;;2.10;99.90;;;;;;6212345;23;20024;-69
2023/12/08 10:40:15;;;;;;;28.75;15.35;;;2.00;99.90;;;;;;6212554;23;20131;-69
2023/12/08 10:42:49;;;;;;;27.77;15.15;;;2.10;99.90;;;;;;6212759;23;20091;-69
2023/12/08 10:45:15;;;;;;;29.20;15.15;;;2.10;99.90;;;;;;6212835;23;20062;-69
2023/12/08 10:47:43;;;;;;;30.38;13.75;;;2.00;99.90;;;;;;6210298;23;20103;-69
2023/12/08 10:50:09;;;;;;;27.77;13.38;;;2.00;99.90;;;;;;6211659;23;20021;-69
2023/12/08 10:52:39;;;;;;;30.42;15.35;;;2.00;99.90;;;;;;6212271;23;20044;-69
2023/12/08 10:55:07;;;;;;;27.90;14.27;;;2.00;99.90;;;;;;6211971;23;20107;-69
2023/12/08 10:57:34;;;;;;;36.58;16.77;;;2.10;99.90;;;;;;6211833;23;20013;-68
2023/12/08 11:03:00;;;;;;;36.72;16.95;;;2.10;99.90;;;;;;6198429;23;20345;-69
2023/12/08 11:05:32;;;;;;;25.50;11.98;;;2.10;99.90;;;;;;6209869;23;20107;-67
2023/12/08 11:08:00;;;;;;;41.28;18.00;;;2.60;99.90;;;;;;6212087;23;20021;-69
2023/12/08 11:10:29;;;;;;;32.00;16.48;;;2.60;99.90;;;;;;6212351;23;20440;-69
2023/12/08 11:13:21;;;;;;;34.53;17.98;;;2.50;99.90;;;;;;6212352;23;20012;-70
2023/12/08 11:16:13;;;;;;;36.10;16.25;;;2.40;99.90;;;;;;6210309;23;20028;-68
2023/12/08 11:18:40;;;;;;;36.13;15.55;;;2.30;99.90;;;;;;6210230;23;20071;-69
2023/12/08 11:21:08;;;;;;;32.70;15.88;;;2.30;99.90;;;;;;6211432;23;20025;-69
2023/12/08 11:23:44;;;;;;;38.00;15.60;;;2.30;99.90;;;;;;6210046;23;20024;-71
2023/12/08 11:26:24;;;;;;;36.40;16.25;;;2.30;99.90;;;;;;6211696;23;20017;-68
2023/12/08 11:29:14;;;;;;;37.28;16.05;;;2.30;99.90;;;;;;6212027;23;20023;-70
2023/12/08 11:32:09;;;;;;;38.05;16.95;;;2.40;99.90;;;;;;6212069;23;20050;-69
2023/12/08 11:34:48;;;;;;;45.60;16.23;;;2.30;99.90;;;;;;6211832;23;20096;-70
2023/12/08 11:37:16;;;;;;;37.15;16.13;;;2.30;99.90;;;;;;6211966;23;20346;-67
2023/12/08 11:39:43;;;;;;;38.40;16.40;;;2.30;99.90;;;;;;6211900;23;20044;-70
2023/12/08 11:42:16;;;;;;;35.72;17.90;;;2.40;99.90;;;;;;6209927;23;20020;-69
2023/12/08 11:44:43;;;;;;;;;;;2.50;99.90;;;;;;6212536;23;20384;-68
2023/12/08 11:47:09;;;;;;;40.22;17.00;;;2.50;99.90;;;;;;6211891;23;19915;-67
2023/12/08 11:49:36;;;;;;;44.33;16.67;;;2.50;99.90;;;;;;6211029;23;20017;-67
2023/12/08 11:52:19;;;;;;;46.92;18.60;;;2.50;99.90;;;;;;6211965;23;20130;-67
2023/12/08 11:55:15;;;;;;;37.30;16.80;;;2.40;99.90;;;;;;6211753;23;20049;-68
2023/12/08 11:57:59;;;;;;;38.30;16.55;;;2.40;99.90;;;;;;6211623;23;20013;-68
2023/12/08 12:00:27;;;;;;;37.72;16.95;;;2.40;99.90;;;;;;6211560;23;20318;-68
2023/12/08 12:02:54;;;;;;;41.92;18.88;;;2.40;99.90;;;;;;6211729;23;20091;-68
2023/12/08 12:05:21;;;;;;;41.90;17.88;;;2.50;99.90;;;;;;6209909;23;20355;-68
2023/12/08 12:07:52;;;;;;;44.25;18.30;;;2.50;99.90;;;;;;6209518;23;20116;-68
2023/12/08 12:10:28;;;;;;;41.03;18.00;;;2.50;99.90;;;;;;6185126;23;20035;-68
2023/12/08 12:13:06;;;;;;;38.40;18.58;;;2.50;99.90;;;;;;6212611;23;20232;-68
2023/12/08 12:15:36;;;;;;;45.72;17.77;;;2.50;99.90;;;;;;6211913;23;20024;-68
2023/12/08 12:18:02;;;;;;;45.28;18.20;;;2.50;99.90;;;;;;6210758;23;20091;-68
2023/12/08 12:20:30;;;;;;;39.05;18.20;;;2.50;99.90;;;;;;6211289;23;20024;-68
2023/12/08 12:22:56;;;;;;;46.25;18.92;;;2.60;99.90;;;;;;6212585;23;20024;-68
2023/12/08 12:25:22;;;;;;;45.15;19.65;;;2.50;99.90;;;;;;6210426;23;20036;-68
2023/12/08 12:27:48;;;;;;;45.42;19.08;;;2.50;99.90;;;;;;6211224;23;20384;-68
2023/12/08 12:30:18;;;;;;;49.85;19.15;;;2.60;99.90;;;;;;6211434;23;20086;-68
2023/12/08 12:32:46;;;;;;;44.78;20.02;;;2.60;99.90;;;;;;6210567;23;20021;-69
2023/12/08 12:35:13;;;;;;;44.65;18.13;;;2.60;99.90;;;;;;6210630;23;20028;-69
2023/12/08 12:37:39;;;;;;;39.80;17.23;;;2.60;99.90;;;;;;6209350;23;20027;-69
2023/12/08 12:40:07;;;;;;;50.90;21.15;;;2.60;99.90;;;;;;6211137;23;20024;-69